createdAt,value
2023-04-19T00:02:30.316Z,11.40
2023-04-19T00:05:20.112Z,11.40
2023-04-19T00:08:08.937Z,11.40
2023-04-19T00:10:57.473Z,11.40
2023-04-19T00:13:45.972Z,11.40
2023-04-19T00:16:35.849Z,11.40
2023-04-19T00:19:24.324Z,11.40
2023-04-19T00:22:12.822Z,11.40
2023-04-19T00:25:02.082Z,11.40
2023-04-19T00:27:50.550Z,11.40
2023-04-19T00:30:39.458Z,11.40
2023-04-19T00:33:29.387Z,11.40
2023-04-19T00:36:19.161Z,11.40
2023-04-19T00:39:08.861Z,11.40
2023-04-19T00:42:00.011Z,11.40
2023-04-19T00:44:48.558Z,11.40
2023-04-19T00:47:37.550Z,11.40
2023-04-19T00:50:28.106Z,11.40
2023-04-19T00:53:18.554Z,11.30
2023-04-19T00:56:09.232Z,11.30
2023-04-19T00:58:58.166Z,11.30
2023-04-19T01:01:47.130Z,11.30
2023-04-19T01:04:36.195Z,11.30
2023-04-19T01:07:26.284Z,11.20
2023-04-19T01:10:15.842Z,11.30
2023-04-19T01:13:04.346Z,11.30
2023-04-19T01:16:00.064Z,11.20
2023-04-19T01:18:48.977Z,11.20
2023-04-19T01:21:39.471Z,11.20
2023-04-19T01:24:29.331Z,11.20
2023-04-19T01:27:17.855Z,11.10
2023-04-19T01:30:08.046Z,11.10
2023-04-19T01:32:56.629Z,11.10
2023-04-19T01:35:45.196Z,11.10
2023-04-19T01:38:35.043Z,11.00
2023-04-19T01:41:27.113Z,11.00
2023-04-19T01:44:16.045Z,11.00
2023-04-19T01:47:05.635Z,11.00
2023-04-19T01:49:54.964Z,11.00
2023-04-19T01:52:43.434Z,11.00
2023-04-19T01:55:32.568Z,11.00
2023-04-19T01:58:22.471Z,10.90
2023-04-19T02:01:12.620Z,10.90
2023-04-19T02:04:01.699Z,10.90
2023-04-19T02:06:50.397Z,10.90
2023-04-19T02:09:39.794Z,10.90
2023-04-19T02:12:29.502Z,10.90
2023-04-19T02:15:19.432Z,10.90
2023-04-19T02:18:08.227Z,10.90
2023-04-19T02:20:56.808Z,10.90
2023-04-19T02:23:45.684Z,10.90
2023-04-19T02:26:34.207Z,10.80
2023-04-19T02:29:22.883Z,10.80
2023-04-19T02:32:13.432Z,10.80
2023-04-19T02:35:01.926Z,10.80
2023-04-19T02:37:51.291Z,10.80
2023-04-19T02:40:40.195Z,10.70
2023-04-19T02:43:28.718Z,10.70
2023-04-19T02:46:17.303Z,10.70
2023-04-19T02:49:07.484Z,10.70
2023-04-19T02:51:56.200Z,10.70
2023-04-19T02:54:44.852Z,10.70
2023-04-19T02:57:33.542Z,10.70
2023-04-19T03:00:22.349Z,10.70
2023-04-19T03:03:23.036Z,10.60
2023-04-19T03:06:13.024Z,10.60
2023-04-19T03:09:01.997Z,10.60
2023-04-19T03:11:50.525Z,10.60
2023-04-19T03:14:39.581Z,10.60
2023-04-19T03:17:28.248Z,10.50
2023-04-19T03:20:18.194Z,10.50
2023-04-19T03:23:08.767Z,10.50
2023-04-19T03:25:57.582Z,10.50
2023-04-19T03:28:54.830Z,10.40
2023-04-19T03:31:53.147Z,10.40
2023-04-19T03:34:41.865Z,10.40
2023-04-19T03:37:30.503Z,10.40
2023-04-19T03:40:21.403Z,10.40
2023-04-19T03:43:10.133Z,10.30
2023-04-19T03:45:58.675Z,10.30
2023-04-19T03:48:47.432Z,10.30
2023-04-19T03:51:35.958Z,10.30
2023-04-19T03:54:24.450Z,10.30
2023-04-19T03:57:17.503Z,10.20
2023-04-19T04:00:08.251Z,10.20
2023-04-19T04:03:02.548Z,10.20
2023-04-19T04:05:51.540Z,10.20
2023-04-19T04:08:40.054Z,10.10
2023-04-19T04:11:28.538Z,10.10
2023-04-19T04:14:18.428Z,10.10
2023-04-19T04:17:08.427Z,10.10
2023-04-19T04:19:57.321Z,10.00
2023-04-19T04:22:49.034Z,10.00
2023-04-19T04:25:41.286Z,10.00
2023-04-19T04:28:33.452Z,10.00
2023-04-19T04:31:24.431Z,9.90
2023-04-19T04:34:13.242Z,9.90
2023-04-19T04:37:35.090Z,9.90
2023-04-19T04:40:24.491Z,9.90
2023-04-19T04:43:16.168Z,9.90
2023-04-19T04:46:05.082Z,9.80
2023-04-19T04:49:01.730Z,9.80
2023-04-19T04:51:51.192Z,9.80
2023-04-19T04:54:43.903Z,9.70
2023-04-19T04:57:42.362Z,9.70
2023-04-19T05:01:01.188Z,9.70
2023-04-19T05:04:13.404Z,9.70
2023-04-19T05:07:04.947Z,9.60
2023-04-19T05:09:54.688Z,9.60
2023-04-19T05:12:48.036Z,9.60
2023-04-19T05:15:38.083Z,9.60
2023-04-19T05:18:27.202Z,9.50
2023-04-19T05:21:18.945Z,9.50
2023-04-19T05:24:12.207Z,9.50
2023-04-19T05:27:01.910Z,9.40
2023-04-19T05:29:51.427Z,9.30
2023-04-19T05:32:40.991Z,9.30
2023-04-19T05:35:32.581Z,9.30
2023-04-19T05:38:21.880Z,9.30
2023-04-19T05:41:12.917Z,9.20
2023-04-19T05:44:05.168Z,9.20
2023-04-19T05:46:55.677Z,9.20
2023-04-19T05:50:26.136Z,9.20
2023-04-19T05:53:50.236Z,9.20
2023-04-19T05:56:54.534Z,9.20
2023-04-19T05:59:47.761Z,9.20
2023-04-19T06:02:40.619Z,9.20
2023-04-19T06:05:37.082Z,9.20
2023-04-19T06:08:29.097Z,9.30
2023-04-19T06:11:26.519Z,9.20
2023-04-19T06:14:22.466Z,9.20
2023-04-19T06:17:13.015Z,9.20
2023-04-19T06:20:02.209Z,9.20
2023-04-19T06:22:54.631Z,9.20
2023-04-19T06:25:43.530Z,9.30
2023-04-19T06:28:33.570Z,9.30
2023-04-19T06:31:24.755Z,9.30
2023-04-19T06:34:15.756Z,9.30
2023-04-19T06:37:09.508Z,9.30
2023-04-19T06:43:47.454Z,9.30
2023-04-19T06:47:14.201Z,9.40
2023-04-19T06:53:43.938Z,9.50
2023-04-19T06:57:02.202Z,9.50
2023-04-19T07:00:35.779Z,9.60
2023-04-19T07:03:50.296Z,9.60
2023-04-19T07:06:56.171Z,9.70
2023-04-19T07:10:12.412Z,9.70
2023-04-19T07:13:21.294Z,9.70
2023-04-19T07:16:33.167Z,9.80
2023-04-19T07:20:02.818Z,9.90
2023-04-19T07:23:00.465Z,10.00
2023-04-19T07:26:02.571Z,10.00
2023-04-19T07:29:18.614Z,10.10
2023-04-19T07:32:57.656Z,10.10
2023-04-19T07:36:18.599Z,10.10
2023-04-19T07:39:45.090Z,10.10
2023-04-19T07:43:26.476Z,10.10
2023-04-19T08:13:10.064Z,10.40
2023-04-19T08:16:41.846Z,10.50
2023-04-19T08:20:48.051Z,10.60
2023-04-19T09:07:55.494Z,11.40
2023-04-19T09:11:14.163Z,11.40
2023-04-19T09:17:41.525Z,11.40
2023-04-19T09:21:06.946Z,11.50
2023-04-19T09:24:17.996Z,11.50
2023-04-19T10:14:41.419Z,12.30
2023-04-19T10:19:46.460Z,12.40
2023-04-19T10:22:15.672Z,12.60
2023-04-19T10:25:13.919Z,12.60
2023-04-19T10:28:02.457Z,12.70
2023-04-19T10:30:56.307Z,12.70
2023-04-19T10:33:44.931Z,12.70
2023-04-19T10:36:33.745Z,12.80
2023-04-19T10:39:42.643Z,12.90
2023-04-19T10:43:18.668Z,12.90
2023-04-19T10:46:16.036Z,13.00
2023-04-19T10:49:07.713Z,13.00
2023-04-19T10:51:57.895Z,13.10
2023-04-19T10:54:57.673Z,13.10
2023-04-19T10:58:05.615Z,13.20
2023-04-19T11:01:38.060Z,13.20
2023-04-19T11:05:01.778Z,13.20
2023-04-19T11:07:50.413Z,13.30
2023-04-19T11:10:42.560Z,13.30
2023-04-19T11:13:31.174Z,13.30
2023-04-19T11:16:20.406Z,13.40
2023-04-19T11:19:11.224Z,13.40
2023-04-19T11:22:01.064Z,13.60
2023-04-19T11:24:49.562Z,13.70
2023-04-19T11:27:41.074Z,13.80
2023-04-19T11:30:31.357Z,13.90
2023-04-19T11:33:24.609Z,14.00
2023-04-19T11:36:14.290Z,14.00
2023-04-19T11:39:03.207Z,14.10
2023-04-19T11:41:51.685Z,14.10
2023-04-19T11:44:41.506Z,14.10
2023-04-19T11:47:30.828Z,14.20
2023-04-19T11:50:36.498Z,14.30
2023-04-19T11:53:27.112Z,14.30
2023-04-19T11:56:16.912Z,14.50
2023-04-19T11:59:05.655Z,14.50
2023-04-19T12:01:55.557Z,14.60
2023-04-19T12:04:44.202Z,14.60
2023-04-19T12:07:32.864Z,14.60
2023-04-19T12:10:22.133Z,14.60
2023-04-19T12:13:20.071Z,14.60
2023-04-19T12:16:09.583Z,14.70
2023-04-19T12:18:59.498Z,14.70
2023-04-19T12:21:49.139Z,14.80
2023-04-19T12:24:39.557Z,14.90
2023-04-19T12:27:28.170Z,15.00
2023-04-19T12:30:16.839Z,15.00
2023-04-19T12:33:07.111Z,15.00
2023-04-19T12:35:56.963Z,15.00
2023-04-19T12:38:45.451Z,15.10
2023-04-19T12:41:33.867Z,15.10
2023-04-19T12:44:22.347Z,15.10
2023-04-19T12:47:10.832Z,15.00
2023-04-19T12:49:59.364Z,15.00
2023-04-19T12:52:49.498Z,15.10
2023-04-19T12:55:38.066Z,15.10
2023-04-19T12:58:28.066Z,15.10
2023-04-19T13:01:17.138Z,15.10
2023-04-19T13:04:07.796Z,15.20
2023-04-19T13:06:56.505Z,15.30
2023-04-19T13:09:56.070Z,15.30
2023-04-19T13:12:45.291Z,15.40
2023-04-19T13:15:33.815Z,15.50
2023-04-19T13:18:22.908Z,15.60
2023-04-19T13:21:11.425Z,15.60
2023-04-19T13:24:00.014Z,15.70
2023-04-19T13:26:50.056Z,15.70
2023-04-19T13:29:38.635Z,15.70
2023-04-19T13:32:27.100Z,15.70
2023-04-19T13:35:15.587Z,15.70
2023-04-19T13:48:50.838Z,15.70
2023-04-19T13:52:32.259Z,15.80
2023-04-19T13:56:09.340Z,15.90
2023-04-19T13:59:21.059Z,15.90
2023-04-19T14:03:01.712Z,15.90
2023-04-19T14:05:50.379Z,15.90
2023-04-19T14:08:40.342Z,16.00
2023-04-19T14:11:52.887Z,15.90
2023-04-19T14:14:41.781Z,15.90
2023-04-19T14:17:30.341Z,15.90
2023-04-19T14:20:19.230Z,15.90
2023-04-19T14:27:10.339Z,16.00
2023-04-19T14:30:00.052Z,16.00
2023-04-19T14:32:59.876Z,16.00
2023-04-19T14:36:59.113Z,16.00
2023-04-19T14:39:48.103Z,15.90
2023-04-19T14:42:38.253Z,15.90
2023-04-19T14:45:27.564Z,15.90
2023-04-19T14:48:16.313Z,15.90
2023-04-19T14:51:05.233Z,16.00
2023-04-19T14:53:53.858Z,16.10
2023-04-19T14:56:42.483Z,16.10
2023-04-19T14:59:32.299Z,16.10
2023-04-19T15:02:21.237Z,16.00
2023-04-19T15:05:11.137Z,16.00
2023-04-19T15:07:59.701Z,16.00
2023-04-19T15:10:48.211Z,16.00
2023-04-19T15:13:36.840Z,16.10
2023-04-19T15:16:26.763Z,16.00
2023-04-19T15:20:33.242Z,16.00
2023-04-19T15:23:26.031Z,16.00
2023-04-19T15:26:14.586Z,16.10
2023-04-19T15:29:03.225Z,16.10
2023-04-19T15:31:53.341Z,16.10
2023-04-19T15:34:41.924Z,16.10
2023-04-19T15:37:30.442Z,16.10
2023-04-19T15:40:19.051Z,16.10
2023-04-19T15:43:08.193Z,16.10
2023-04-19T15:45:57.779Z,16.00
2023-04-19T15:48:48.426Z,16.00
2023-04-19T15:51:38.344Z,15.90
2023-04-19T15:54:28.800Z,15.90
2023-04-19T15:57:17.339Z,15.90
2023-04-19T16:00:09.373Z,16.00
2023-04-19T16:03:00.853Z,15.90
2023-04-19T16:05:51.682Z,15.90
2023-04-19T16:08:41.195Z,15.90
2023-04-19T16:11:29.912Z,15.90
2023-04-19T16:14:18.352Z,15.90
2023-04-19T16:17:07.593Z,15.90
2023-04-19T16:19:56.035Z,15.80
2023-04-19T16:22:47.740Z,15.80
2023-04-19T16:25:36.405Z,15.70
2023-04-19T16:28:24.873Z,15.70
2023-04-19T16:31:13.402Z,15.70
2023-04-19T16:34:01.825Z,15.70
2023-04-19T16:36:50.230Z,15.60
2023-04-19T16:39:40.074Z,15.50
2023-04-19T16:42:28.580Z,15.40
2023-04-19T16:45:17.885Z,15.40
2023-04-19T16:48:06.567Z,15.30
2023-04-19T16:50:55.087Z,15.20
2023-04-19T16:53:45.443Z,15.20
2023-04-19T16:56:35.268Z,15.20
2023-04-19T16:59:23.758Z,15.10
2023-04-19T17:02:12.273Z,15.00
2023-04-19T17:05:01.250Z,14.90
2023-04-19T17:07:51.519Z,14.90
2023-04-19T17:10:40.027Z,14.90
2023-04-19T17:13:29.851Z,14.80
2023-04-19T17:16:18.413Z,14.80
2023-04-19T17:19:06.869Z,14.70
2023-04-19T17:21:55.584Z,14.70
2023-04-19T17:24:44.222Z,14.60
2023-04-19T17:27:33.249Z,14.60
2023-04-19T17:30:23.835Z,14.50
2023-04-19T17:33:12.591Z,14.50
2023-04-19T17:36:01.331Z,14.40
2023-04-19T17:38:49.804Z,14.30
2023-04-19T17:41:38.429Z,14.30
2023-04-19T17:44:27.132Z,14.30
2023-04-19T17:47:17.139Z,14.30
2023-04-19T17:50:08.261Z,14.20
2023-04-19T17:52:56.878Z,14.10
2023-04-19T17:55:46.226Z,14.00
2023-04-19T17:58:37.291Z,13.90
2023-04-19T18:01:25.933Z,13.90
2023-04-19T18:04:18.030Z,13.80
2023-04-19T18:11:58.410Z,13.80
2023-04-19T18:14:47.161Z,13.70
2023-04-19T18:17:36.386Z,13.60
2023-04-19T18:20:27.542Z,13.60
2023-04-19T18:23:17.964Z,13.50
2023-04-19T18:26:06.708Z,13.40
2023-04-19T18:28:55.392Z,13.30
2023-04-19T18:31:44.188Z,13.20
2023-04-19T18:34:35.014Z,13.20
2023-04-19T18:37:25.113Z,13.10
2023-04-19T18:40:23.627Z,13.00
2023-04-19T18:43:25.728Z,13.00
2023-04-19T18:46:21.248Z,13.00
2023-04-19T18:49:33.476Z,12.90
2023-04-19T18:52:41.607Z,12.90
2023-04-19T18:56:12.237Z,12.80
2023-04-19T18:59:06.337Z,12.80
2023-04-19T19:02:22.060Z,12.70
2023-04-19T19:05:17.022Z,12.70
2023-04-19T19:08:12.180Z,12.70
2023-04-19T19:13:53.117Z,12.50
2023-04-19T19:16:51.335Z,12.50
2023-04-19T19:19:46.241Z,12.50
2023-04-19T19:22:37.795Z,12.40
2023-04-19T19:25:36.333Z,12.40
2023-04-19T19:28:32.824Z,12.40
2023-04-19T19:31:25.802Z,12.30
2023-04-19T19:34:27.231Z,12.30
2023-04-19T19:37:21.642Z,12.20
2023-04-19T19:40:11.988Z,12.20
2023-04-19T19:43:05.134Z,12.10
2023-04-19T19:46:12.035Z,12.00
2023-04-19T19:49:01.777Z,12.00
2023-04-19T19:51:58.637Z,12.00
2023-04-19T19:54:48.535Z,11.90
2023-04-19T20:03:36.258Z,11.60
2023-04-19T20:07:17.286Z,11.60
2023-04-19T20:09:35.450Z,11.50
2023-04-19T20:12:24.336Z,11.50
2023-04-19T20:15:14.550Z,11.40
2023-04-19T20:18:05.748Z,11.40
2023-04-19T20:20:54.500Z,11.30
2023-04-19T20:23:43.253Z,11.20
2023-04-19T20:26:32.074Z,11.10
2023-04-19T20:29:20.744Z,11.10
2023-04-19T20:32:09.832Z,11.10
2023-04-19T20:35:00.387Z,11.00
2023-04-19T20:37:50.932Z,10.90
2023-04-19T20:40:40.896Z,10.90
2023-04-19T20:43:32.631Z,10.90
2023-04-19T20:46:22.175Z,10.80
2023-04-19T20:49:10.993Z,10.80
2023-04-19T20:52:02.153Z,10.80
2023-04-19T20:54:50.599Z,10.70
2023-04-19T20:57:39.100Z,10.70
2023-04-19T21:00:27.571Z,10.60
2023-04-19T21:03:16.269Z,10.60
2023-04-19T21:06:05.509Z,10.60
2023-04-19T21:08:55.316Z,10.50
2023-04-19T21:11:43.798Z,10.50
2023-04-19T21:14:33.564Z,10.50
2023-04-19T21:17:22.981Z,10.50
2023-04-19T21:20:17.954Z,10.40
2023-04-19T21:23:06.562Z,10.40
2023-04-19T21:25:56.455Z,10.40
2023-04-19T21:28:44.864Z,10.30
2023-04-19T21:31:33.280Z,10.30
2023-04-19T21:34:21.664Z,10.30
2023-04-19T21:37:10.739Z,10.30
2023-04-19T21:39:59.333Z,10.30
2023-04-19T21:42:49.275Z,10.20
2023-04-19T21:45:39.984Z,10.20
2023-04-19T21:48:28.435Z,10.20
2023-04-19T21:51:17.084Z,10.20
2023-04-19T21:54:05.578Z,10.10
2023-04-19T21:56:53.884Z,10.10
2023-04-19T21:59:43.669Z,10.10
2023-04-19T22:02:32.099Z,10.00
2023-04-19T22:05:20.543Z,10.00
2023-04-19T22:08:09.148Z,10.00
2023-04-19T22:10:58.309Z,9.90
2023-04-19T22:13:46.962Z,9.90
2023-04-19T22:16:36.823Z,9.80
2023-04-19T22:19:25.680Z,9.80
2023-04-19T22:22:14.093Z,9.80
2023-04-19T22:25:02.597Z,9.70
2023-04-19T22:27:50.934Z,9.70
2023-04-19T22:30:39.319Z,9.70
2023-04-19T22:33:28.987Z,9.60
2023-04-19T22:36:17.363Z,9.60
2023-04-19T22:39:06.047Z,9.60
2023-04-19T22:41:54.427Z,9.60
2023-04-19T22:44:42.855Z,9.50
2023-04-19T22:47:32.995Z,9.50
2023-04-19T22:50:23.506Z,9.50
2023-04-19T22:53:12.674Z,9.40
2023-04-19T22:56:01.031Z,9.30
2023-04-19T22:58:49.529Z,9.30
2023-04-19T23:01:37.947Z,9.30
2023-04-19T23:04:26.890Z,9.20
2023-04-19T23:07:19.831Z,9.20
2023-04-19T23:10:10.675Z,9.10
2023-04-19T23:12:59.495Z,9.10
2023-04-19T23:15:49.446Z,9.10
2023-04-19T23:18:38.576Z,9.00
2023-04-19T23:21:27.146Z,9.00
2023-04-19T23:24:16.820Z,9.00
2023-04-19T23:27:05.662Z,9.00
2023-04-19T23:29:54.009Z,8.90
2023-04-19T23:32:42.381Z,8.90
2023-04-19T23:35:30.882Z,8.90
2023-04-19T23:38:19.456Z,8.80
2023-04-19T23:41:12.110Z,8.80
2023-04-19T23:44:00.521Z,8.80
2023-04-19T23:46:48.936Z,8.80
2023-04-19T23:49:37.265Z,8.70
2023-04-19T23:52:25.656Z,8.70
2023-04-19T23:55:14.163Z,8.70
2023-04-19T23:58:03.961Z,8.70
